sensor_id;sensor_type;location;lat;lon;timestamp;P1;durP1;ratioP1;P2;durP2;ratioP2
13832;SDS011;6987;19.472;-99.276;2024-01-30T00:01:28;7.55;;;5.55;;
13832;SDS011;6987;19.472;-99.276;2024-01-30T00:03:57;8.68;;;5.28;;
13832;SDS011;6987;19.472;-99.276;2024-01-30T00:06:28;8.15;;;6.00;;
13832;SDS011;6987;19.472;-99.276;2024-01-30T00:08:57;10.82;;;6.05;;
13832;SDS011;6987;19.472;-99.276;2024-01-30T00:11:26;9.98;;;7.30;;
13832;SDS011;6987;19.472;-99.276;2024-01-30T00:13:55;7.53;;;6.55;;
13832;SDS011;6987;19.472;-99.276;2024-01-30T00:16:24;10.25;;;7.45;;
13832;SDS011;6987;19.472;-99.276;2024-01-30T00:18:54;10.07;;;7.53;;
13832;SDS011;6987;19.472;-99.276;2024-01-30T00:21:24;14.82;;;10.18;;
13832;SDS011;6987;19.472;-99.276;2024-01-30T00:23:54;21.05;;;12.10;;
13832;SDS011;6987;19.472;-99.276;2024-01-30T00:26:24;19.38;;;13.40;;
13832;SDS011;6987;19.472;-99.276;2024-01-30T00:28:54;13.55;;;11.43;;
13832;SDS011;6987;19.472;-99.276;2024-01-30T00:31:23;27.30;;;10.55;;
13832;SDS011;6987;19.472;-99.276;2024-01-30T00:33:52;19.83;;;11.70;;
13832;SDS011;6987;19.472;-99.276;2024-01-30T00:36:20;13.77;;;9.73;;
13832;SDS011;6987;19.472;-99.276;2024-01-30T00:38:49;12.88;;;8.60;;
13832;SDS011;6987;19.472;-99.276;2024-01-30T00:41:20;7.47;;;6.32;;
13832;SDS011;6987;19.472;-99.276;2024-01-30T00:43:49;8.25;;;6.50;;
13832;SDS011;6987;19.472;-99.276;2024-01-30T00:46:18;5.68;;;5.05;;
13832;SDS011;6987;19.472;-99.276;2024-01-30T00:48:47;9.35;;;4.93;;
13832;SDS011;6987;19.472;-99.276;2024-01-30T00:51:16;6.07;;;4.90;;
13832;SDS011;6987;19.472;-99.276;2024-01-30T00:53:45;4.80;;;4.40;;
13832;SDS011;6987;19.472;-99.276;2024-01-30T00:56:14;6.95;;;4.60;;
13832;SDS011;6987;19.472;-99.276;2024-01-30T00:58:47;7.28;;;5.57;;
13832;SDS011;6987;19.472;-99.276;2024-01-30T01:01:16;9.10;;;5.05;;
13832;SDS011;6987;19.472;-99.276;2024-01-30T01:03:44;6.40;;;3.60;;
13832;SDS011;6987;19.472;-99.276;2024-01-30T01:06:14;4.32;;;3.90;;
13832;SDS011;6987;19.472;-99.276;2024-01-30T01:08:43;5.28;;;3.15;;
13832;SDS011;6987;19.472;-99.276;2024-01-30T01:11:13;4.65;;;3.38;;
13832;SDS011;6987;19.472;-99.276;2024-01-30T01:13:42;4.60;;;3.28;;
13832;SDS011;6987;19.472;-99.276;2024-01-30T01:16:12;4.05;;;3.65;;
13832;SDS011;6987;19.472;-99.276;2024-01-30T01:18:41;3.28;;;2.85;;
13832;SDS011;6987;19.472;-99.276;2024-01-30T01:21:10;4.28;;;3.20;;
13832;SDS011;6987;19.472;-99.276;2024-01-30T01:23:39;3.83;;;2.78;;
13832;SDS011;6987;19.472;-99.276;2024-01-30T01:26:08;3.22;;;2.47;;
13832;SDS011;6987;19.472;-99.276;2024-01-30T01:28:39;7.63;;;4.18;;
13832;SDS011;6987;19.472;-99.276;2024-01-30T01:31:08;3.80;;;3.40;;
13832;SDS011;6987;19.472;-99.276;2024-01-30T01:33:39;5.55;;;3.75;;
13832;SDS011;6987;19.472;-99.276;2024-01-30T01:36:11;8.50;;;4.18;;
13832;SDS011;6987;19.472;-99.276;2024-01-30T01:38:40;6.25;;;4.65;;
13832;SDS011;6987;19.472;-99.276;2024-01-30T01:41:09;5.07;;;3.80;;
13832;SDS011;6987;19.472;-99.276;2024-01-30T01:43:38;4.78;;;3.40;;
13832;SDS011;6987;19.472;-99.276;2024-01-30T01:46:07;4.22;;;3.80;;
13832;SDS011;6987;19.472;-99.276;2024-01-30T01:48:37;3.78;;;3.45;;
13832;SDS011;6987;19.472;-99.276;2024-01-30T01:51:08;7.63;;;4.05;;
13832;SDS011;6987;19.472;-99.276;2024-01-30T01:53:37;6.88;;;4.18;;
13832;SDS011;6987;19.472;-99.276;2024-01-30T01:56:06;4.78;;;4.30;;
13832;SDS011;6987;19.472;-99.276;2024-01-30T01:58:35;7.43;;;3.60;;
13832;SDS011;6987;19.472;-99.276;2024-01-30T02:01:06;7.45;;;3.58;;
13832;SDS011;6987;19.472;-99.276;2024-01-30T02:03:36;2.47;;;2.38;;
13832;SDS011;6987;19.472;-99.276;2024-01-30T02:06:08;4.20;;;2.95;;
13832;SDS011;6987;19.472;-99.276;2024-01-30T02:08:37;7.13;;;2.17;;
13832;SDS011;6987;19.472;-99.276;2024-01-30T02:11:07;5.30;;;3.50;;
13832;SDS011;6987;19.472;-99.276;2024-01-30T02:13:37;3.63;;;2.65;;
13832;SDS011;6987;19.472;-99.276;2024-01-30T02:16:06;6.13;;;2.70;;
13832;SDS011;6987;19.472;-99.276;2024-01-30T02:18:35;8.38;;;3.53;;
13832;SDS011;6987;19.472;-99.276;2024-01-30T02:21:09;4.05;;;2.65;;
13832;SDS011;6987;19.472;-99.276;2024-01-30T02:23:38;2.70;;;2.50;;
13832;SDS011;6987;19.472;-99.276;2024-01-30T02:26:08;3.15;;;2.40;;
13832;SDS011;6987;19.472;-99.276;2024-01-30T02:28:37;4.53;;;3.13;;
13832;SDS011;6987;19.472;-99.276;2024-01-30T02:31:06;4.57;;;2.60;;
13832;SDS011;6987;19.472;-99.276;2024-01-30T02:33:36;4.45;;;2.80;;
13832;SDS011;6987;19.472;-99.276;2024-01-30T02:36:05;3.40;;;2.50;;
13832;SDS011;6987;19.472;-99.276;2024-01-30T02:38:35;3.22;;;2.90;;
13832;SDS011;6987;19.472;-99.276;2024-01-30T02:41:04;8.80;;;2.83;;
13832;SDS011;6987;19.472;-99.276;2024-01-30T02:43:33;7.20;;;3.60;;
13832;SDS011;6987;19.472;-99.276;2024-01-30T02:46:02;8.45;;;2.80;;
13832;SDS011;6987;19.472;-99.276;2024-01-30T02:48:31;2.55;;;2.35;;
13832;SDS011;6987;19.472;-99.276;2024-01-30T02:51:00;2.42;;;2.22;;
13832;SDS011;6987;19.472;-99.276;2024-01-30T02:53:29;2.95;;;2.15;;
13832;SDS011;6987;19.472;-99.276;2024-01-30T02:56:02;3.10;;;2.10;;
13832;SDS011;6987;19.472;-99.276;2024-01-30T02:58:31;3.67;;;2.13;;
13832;SDS011;6987;19.472;-99.276;2024-01-30T03:01:00;7.13;;;2.28;;
13832;SDS011;6987;19.472;-99.276;2024-01-30T03:03:29;3.42;;;2.33;;
13832;SDS011;6987;19.472;-99.276;2024-01-30T03:05:59;2.58;;;2.38;;
13832;SDS011;6987;19.472;-99.276;2024-01-30T03:08:28;6.43;;;2.70;;
13832;SDS011;6987;19.472;-99.276;2024-01-30T03:10:59;11.82;;;3.00;;
13832;SDS011;6987;19.472;-99.276;2024-01-30T03:13:28;5.45;;;2.83;;
13832;SDS011;6987;19.472;-99.276;2024-01-30T03:15:57;6.13;;;2.85;;
13832;SDS011;6987;19.472;-99.276;2024-01-30T03:18:25;2.38;;;2.17;;
13832;SDS011;6987;19.472;-99.276;2024-01-30T03:20:54;3.38;;;2.40;;
13832;SDS011;6987;19.472;-99.276;2024-01-30T03:23:24;10.05;;;2.92;;
13832;SDS011;6987;19.472;-99.276;2024-01-30T03:25:53;9.50;;;2.83;;
13832;SDS011;6987;19.472;-99.276;2024-01-30T03:28:24;5.68;;;3.30;;
13832;SDS011;6987;19.472;-99.276;2024-01-30T03:30:53;6.22;;;3.53;;
13832;SDS011;6987;19.472;-99.276;2024-01-30T03:33:22;9.02;;;3.22;;
13832;SDS011;6987;19.472;-99.276;2024-01-30T03:35:50;15.10;;;3.17;;
13832;SDS011;6987;19.472;-99.276;2024-01-30T03:38:20;11.50;;;3.40;;
13832;SDS011;6987;19.472;-99.276;2024-01-30T03:40:48;7.68;;;3.65;;
13832;SDS011;6987;19.472;-99.276;2024-01-30T03:43:17;22.60;;;3.70;;
13832;SDS011;6987;19.472;-99.276;2024-01-30T03:45:48;13.18;;;3.78;;
13832;SDS011;6987;19.472;-99.276;2024-01-30T03:48:17;7.57;;;3.92;;
13832;SDS011;6987;19.472;-99.276;2024-01-30T03:50:46;8.93;;;3.35;;
13832;SDS011;6987;19.472;-99.276;2024-01-30T03:53:15;6.63;;;3.05;;
13832;SDS011;6987;19.472;-99.276;2024-01-30T03:55:44;10.82;;;3.20;;
13832;SDS011;6987;19.472;-99.276;2024-01-30T03:58:14;6.80;;;3.33;;
13832;SDS011;6987;19.472;-99.276;2024-01-30T04:00:43;6.57;;;3.50;;
13832;SDS011;6987;19.472;-99.276;2024-01-30T04:03:14;10.38;;;2.90;;
13832;SDS011;6987;19.472;-99.276;2024-01-30T04:05:43;7.00;;;3.17;;
13832;SDS011;6987;19.472;-99.276;2024-01-30T04:08:12;5.82;;;2.67;;
13832;SDS011;6987;19.472;-99.276;2024-01-30T04:10:41;11.35;;;3.03;;
13832;SDS011;6987;19.472;-99.276;2024-01-30T04:13:10;7.47;;;3.05;;
13832;SDS011;6987;19.472;-99.276;2024-01-30T04:15:39;8.65;;;2.78;;
13832;SDS011;6987;19.472;-99.276;2024-01-30T04:18:08;7.82;;;2.92;;
13832;SDS011;6987;19.472;-99.276;2024-01-30T04:20:39;12.18;;;2.72;;
13832;SDS011;6987;19.472;-99.276;2024-01-30T04:23:08;5.85;;;2.60;;
13832;SDS011;6987;19.472;-99.276;2024-01-30T04:25:37;6.63;;;2.95;;
13832;SDS011;6987;19.472;-99.276;2024-01-30T04:28:06;5.88;;;2.92;;
13832;SDS011;6987;19.472;-99.276;2024-01-30T04:30:35;4.28;;;2.83;;
13832;SDS011;6987;19.472;-99.276;2024-01-30T04:33:04;6.15;;;3.10;;
13832;SDS011;6987;19.472;-99.276;2024-01-30T04:35:33;6.82;;;2.92;;
13832;SDS011;6987;19.472;-99.276;2024-01-30T04:38:04;4.22;;;2.55;;
13832;SDS011;6987;19.472;-99.276;2024-01-30T04:40:33;5.15;;;2.83;;
13832;SDS011;6987;19.472;-99.276;2024-01-30T04:43:02;3.65;;;3.17;;
13832;SDS011;6987;19.472;-99.276;2024-01-30T04:45:31;8.05;;;3.08;;
13832;SDS011;6987;19.472;-99.276;2024-01-30T04:48:00;4.63;;;2.75;;
13832;SDS011;6987;19.472;-99.276;2024-01-30T04:50:29;6.38;;;2.88;;
13832;SDS011;6987;19.472;-99.276;2024-01-30T04:52:58;6.40;;;3.33;;
13832;SDS011;6987;19.472;-99.276;2024-01-30T04:55:29;7.43;;;3.00;;
13832;SDS011;6987;19.472;-99.276;2024-01-30T04:57:58;8.30;;;3.17;;
13832;SDS011;6987;19.472;-99.276;2024-01-30T05:00:27;5.55;;;3.10;;
13832;SDS011;6987;19.472;-99.276;2024-01-30T05:02:56;7.10;;;3.08;;
13832;SDS011;6987;19.472;-99.276;2024-01-30T05:05:25;12.35;;;2.95;;
13832;SDS011;6987;19.472;-99.276;2024-01-30T05:07:54;4.55;;;3.13;;
13832;SDS011;6987;19.472;-99.276;2024-01-30T05:10:23;10.07;;;3.30;;
13832;SDS011;6987;19.472;-99.276;2024-01-30T05:12:53;4.15;;;3.13;;
13832;SDS011;6987;19.472;-99.276;2024-01-30T05:15:23;5.88;;;2.58;;
13832;SDS011;6987;19.472;-99.276;2024-01-30T05:17:51;5.88;;;2.88;;
13832;SDS011;6987;19.472;-99.276;2024-01-30T05:20:20;4.90;;;3.33;;
13832;SDS011;6987;19.472;-99.276;2024-01-30T05:22:49;11.52;;;3.33;;
13832;SDS011;6987;19.472;-99.276;2024-01-30T05:25:18;7.15;;;3.25;;
13832;SDS011;6987;19.472;-99.276;2024-01-30T05:27:47;4.53;;;2.90;;
13832;SDS011;6987;19.472;-99.276;2024-01-30T05:30:17;5.03;;;2.63;;
13832;SDS011;6987;19.472;-99.276;2024-01-30T05:32:46;14.07;;;3.35;;
13832;SDS011;6987;19.472;-99.276;2024-01-30T05:35:15;4.75;;;3.15;;
13832;SDS011;6987;19.472;-99.276;2024-01-30T05:37:47;6.57;;;3.20;;
13832;SDS011;6987;19.472;-99.276;2024-01-30T05:40:16;8.55;;;3.40;;
13832;SDS011;6987;19.472;-99.276;2024-01-30T05:42:45;3.72;;;3.22;;
13832;SDS011;6987;19.472;-99.276;2024-01-30T05:45:14;8.35;;;3.45;;
13832;SDS011;6987;19.472;-99.276;2024-01-30T05:47:45;3.17;;;2.97;;
13832;SDS011;6987;19.472;-99.276;2024-01-30T05:50:13;8.57;;;3.20;;
13832;SDS011;6987;19.472;-99.276;2024-01-30T05:52:43;7.63;;;3.45;;
13832;SDS011;6987;19.472;-99.276;2024-01-30T05:55:11;6.72;;;3.00;;
13832;SDS011;6987;19.472;-99.276;2024-01-30T05:57:40;5.93;;;3.63;;
13832;SDS011;6987;19.472;-99.276;2024-01-30T06:00:10;5.97;;;3.17;;
13832;SDS011;6987;19.472;-99.276;2024-01-30T06:02:39;4.07;;;3.22;;
13832;SDS011;6987;19.472;-99.276;2024-01-30T06:05:13;4.50;;;3.35;;
13832;SDS011;6987;19.472;-99.276;2024-01-30T06:07:42;4.53;;;3.33;;
13832;SDS011;6987;19.472;-99.276;2024-01-30T06:10:10;3.63;;;3.20;;
13832;SDS011;6987;19.472;-99.276;2024-01-30T06:12:39;6.55;;;3.22;;
13832;SDS011;6987;19.472;-99.276;2024-01-30T06:15:08;5.57;;;3.42;;
13832;SDS011;6987;19.472;-99.276;2024-01-30T06:17:38;4.90;;;3.17;;
13832;SDS011;6987;19.472;-99.276;2024-01-30T06:20:09;11.90;;;4.07;;
13832;SDS011;6987;19.472;-99.276;2024-01-30T06:22:38;4.50;;;3.33;;
13832;SDS011;6987;19.472;-99.276;2024-01-30T06:25:07;8.75;;;4.03;;
13832;SDS011;6987;19.472;-99.276;2024-01-30T06:27:37;4.40;;;3.92;;
13832;SDS011;6987;19.472;-99.276;2024-01-30T06:30:07;7.38;;;4.10;;
13832;SDS011;6987;19.472;-99.276;2024-01-30T06:32:36;4.93;;;4.30;;
13832;SDS011;6987;19.472;-99.276;2024-01-30T06:35:05;8.23;;;5.05;;
13832;SDS011;6987;19.472;-99.276;2024-01-30T06:37:36;6.35;;;4.82;;
13832;SDS011;6987;19.472;-99.276;2024-01-30T06:40:05;5.47;;;4.32;;
13832;SDS011;6987;19.472;-99.276;2024-01-30T06:42:34;6.95;;;4.05;;
13832;SDS011;6987;19.472;-99.276;2024-01-30T06:45:04;5.15;;;3.67;;
13832;SDS011;6987;19.472;-99.276;2024-01-30T06:47:33;3.80;;;3.50;;
13832;SDS011;6987;19.472;-99.276;2024-01-30T06:50:02;6.25;;;3.88;;
13832;SDS011;6987;19.472;-99.276;2024-01-30T06:52:31;4.80;;;4.30;;
13832;SDS011;6987;19.472;-99.276;2024-01-30T06:55:01;5.18;;;4.40;;
13832;SDS011;6987;19.472;-99.276;2024-01-30T06:57:30;7.50;;;4.25;;
13832;SDS011;6987;19.472;-99.276;2024-01-30T06:59:59;9.77;;;4.53;;
13832;SDS011;6987;19.472;-99.276;2024-01-30T07:02:28;5.93;;;4.35;;
13832;SDS011;6987;19.472;-99.276;2024-01-30T07:04:57;7.47;;;4.82;;
13832;SDS011;6987;19.472;-99.276;2024-01-30T07:07:26;5.10;;;4.60;;
13832;SDS011;6987;19.472;-99.276;2024-01-30T07:09:55;5.90;;;5.03;;
13832;SDS011;6987;19.472;-99.276;2024-01-30T07:12:26;10.88;;;5.00;;
13832;SDS011;6987;19.472;-99.276;2024-01-30T07:14:55;5.28;;;4.60;;
13832;SDS011;6987;19.472;-99.276;2024-01-30T07:17:25;4.95;;;4.47;;
13832;SDS011;6987;19.472;-99.276;2024-01-30T07:19:54;4.15;;;3.85;;
13832;SDS011;6987;19.472;-99.276;2024-01-30T07:22:22;6.38;;;4.45;;
13832;SDS011;6987;19.472;-99.276;2024-01-30T07:24:52;4.50;;;4.13;;
13832;SDS011;6987;19.472;-99.276;2024-01-30T07:27:21;10.13;;;4.13;;
13832;SDS011;6987;19.472;-99.276;2024-01-30T07:29:51;5.00;;;4.40;;
13832;SDS011;6987;19.472;-99.276;2024-01-30T07:32:20;5.63;;;4.28;;
13832;SDS011;6987;19.472;-99.276;2024-01-30T07:34:49;9.40;;;4.80;;
13832;SDS011;6987;19.472;-99.276;2024-01-30T07:37:18;5.28;;;4.75;;
13832;SDS011;6987;19.472;-99.276;2024-01-30T07:39:47;6.32;;;4.32;;
13832;SDS011;6987;19.472;-99.276;2024-01-30T07:42:16;4.63;;;4.05;;
13832;SDS011;6987;19.472;-99.276;2024-01-30T07:44:45;5.65;;;4.53;;
13832;SDS011;6987;19.472;-99.276;2024-01-30T07:47:15;5.18;;;3.72;;
13832;SDS011;6987;19.472;-99.276;2024-01-30T07:49:44;6.10;;;4.20;;
13832;SDS011;6987;19.472;-99.276;2024-01-30T07:52:13;4.40;;;3.83;;
13832;SDS011;6987;19.472;-99.276;2024-01-30T07:54:48;3.92;;;3.63;;
13832;SDS011;6987;19.472;-99.276;2024-01-30T07:57:17;3.72;;;3.33;;
13832;SDS011;6987;19.472;-99.276;2024-01-30T07:59:46;4.00;;;3.58;;
13832;SDS011;6987;19.472;-99.276;2024-01-30T08:02:17;3.85;;;3.58;;
13832;SDS011;6987;19.472;-99.276;2024-01-30T08:04:46;7.20;;;3.72;;
13832;SDS011;6987;19.472;-99.276;2024-01-30T08:07:15;4.25;;;3.45;;
13832;SDS011;6987;19.472;-99.276;2024-01-30T08:09:45;5.75;;;3.78;;
13832;SDS011;6987;19.472;-99.276;2024-01-30T08:12:14;3.75;;;3.33;;
13832;SDS011;6987;19.472;-99.276;2024-01-30T08:14:42;3.97;;;2.92;;
13832;SDS011;6987;19.472;-99.276;2024-01-30T08:17:12;5.43;;;3.42;;
13832;SDS011;6987;19.472;-99.276;2024-01-30T08:19:42;5.55;;;3.67;;
13832;SDS011;6987;19.472;-99.276;2024-01-30T08:22:11;2.83;;;2.63;;
13832;SDS011;6987;19.472;-99.276;2024-01-30T08:24:41;7.40;;;2.88;;
13832;SDS011;6987;19.472;-99.276;2024-01-30T08:27:10;2.75;;;2.55;;
13832;SDS011;6987;19.472;-99.276;2024-01-30T08:29:39;2.75;;;2.45;;
13832;SDS011;6987;19.472;-99.276;2024-01-30T08:32:08;3.80;;;2.88;;
13832;SDS011;6987;19.472;-99.276;2024-01-30T08:34:37;3.50;;;2.22;;
13832;SDS011;6987;19.472;-99.276;2024-01-30T08:37:07;3.95;;;2.80;;
13832;SDS011;6987;19.472;-99.276;2024-01-30T08:39:37;8.27;;;2.63;;
13832;SDS011;6987;19.472;-99.276;2024-01-30T08:42:06;2.28;;;2.13;;
13832;SDS011;6987;19.472;-99.276;2024-01-30T08:44:35;4.03;;;2.10;;
13832;SDS011;6987;19.472;-99.276;2024-01-30T08:47:04;4.75;;;2.20;;
13832;SDS011;6987;19.472;-99.276;2024-01-30T08:49:33;2.58;;;2.38;;
13832;SDS011;6987;19.472;-99.276;2024-01-30T08:52:03;2.45;;;2.20;;
13832;SDS011;6987;19.472;-99.276;2024-01-30T08:54:35;2.65;;;2.10;;
13832;SDS011;6987;19.472;-99.276;2024-01-30T08:57:04;1.88;;;1.77;;
13832;SDS011;6987;19.472;-99.276;2024-01-30T08:59:33;1.95;;;1.85;;
13832;SDS011;6987;19.472;-99.276;2024-01-30T09:02:02;2.00;;;1.90;;
13832;SDS011;6987;19.472;-99.276;2024-01-30T09:04:31;2.10;;;2.00;;
13832;SDS011;6987;19.472;-99.276;2024-01-30T09:07:00;3.83;;;2.38;;
13832;SDS011;6987;19.472;-99.276;2024-01-30T09:09:31;2.10;;;1.80;;
13832;SDS011;6987;19.472;-99.276;2024-01-30T09:12:17;2.25;;;2.13;;
13832;SDS011;6987;19.472;-99.276;2024-01-30T09:14:46;5.90;;;2.30;;
13832;SDS011;6987;19.472;-99.276;2024-01-30T09:17:15;2.92;;;1.83;;
13832;SDS011;6987;19.472;-99.276;2024-01-30T09:19:45;1.88;;;1.77;;
13832;SDS011;6987;19.472;-99.276;2024-01-30T09:22:14;2.00;;;1.80;;
13832;SDS011;6987;19.472;-99.276;2024-01-30T09:24:43;2.03;;;1.88;;
13832;SDS011;6987;19.472;-99.276;2024-01-30T09:27:12;3.17;;;1.95;;
13832;SDS011;6987;19.472;-99.276;2024-01-30T09:29:43;3.38;;;1.88;;
13832;SDS011;6987;19.472;-99.276;2024-01-30T09:32:12;2.83;;;1.65;;
13832;SDS011;6987;19.472;-99.276;2024-01-30T09:34:41;2.20;;;2.00;;
13832;SDS011;6987;19.472;-99.276;2024-01-30T09:37:10;1.88;;;1.77;;
13832;SDS011;6987;19.472;-99.276;2024-01-30T09:39:41;3.30;;;1.67;;
13832;SDS011;6987;19.472;-99.276;2024-01-30T09:42:11;4.22;;;1.85;;
13832;SDS011;6987;19.472;-99.276;2024-01-30T09:44:44;1.80;;;1.70;;
13832;SDS011;6987;19.472;-99.276;2024-01-30T09:47:15;2.50;;;1.88;;
13832;SDS011;6987;19.472;-99.276;2024-01-30T09:49:47;2.90;;;1.65;;
13832;SDS011;6987;19.472;-99.276;2024-01-30T09:52:16;1.70;;;1.60;;
13832;SDS011;6987;19.472;-99.276;2024-01-30T09:54:46;1.95;;;1.77;;
13832;SDS011;6987;19.472;-99.276;2024-01-30T09:57:16;1.90;;;1.80;;
13832;SDS011;6987;19.472;-99.276;2024-01-30T09:59:47;1.88;;;1.75;;
13832;SDS011;6987;19.472;-99.276;2024-01-30T10:02:17;3.42;;;1.88;;
13832;SDS011;6987;19.472;-99.276;2024-01-30T10:04:47;4.88;;;2.05;;
13832;SDS011;6987;19.472;-99.276;2024-01-30T10:07:17;7.28;;;1.75;;
13832;SDS011;6987;19.472;-99.276;2024-01-30T10:09:46;1.98;;;1.88;;
13832;SDS011;6987;19.472;-99.276;2024-01-30T10:12:15;1.95;;;1.83;;
13832;SDS011;6987;19.472;-99.276;2024-01-30T10:14:46;1.63;;;1.52;;
13832;SDS011;6987;19.472;-99.276;2024-01-30T10:17:15;4.15;;;1.75;;
13832;SDS011;6987;19.472;-99.276;2024-01-30T10:19:46;1.77;;;1.67;;
13832;SDS011;6987;19.472;-99.276;2024-01-30T10:22:16;1.88;;;1.63;;
13832;SDS011;6987;19.472;-99.276;2024-01-30T10:24:46;4.70;;;1.83;;
13832;SDS011;6987;19.472;-99.276;2024-01-30T10:27:15;2.38;;;2.17;;
13832;SDS011;6987;19.472;-99.276;2024-01-30T10:29:48;4.85;;;1.55;;
13832;SDS011;6987;19.472;-99.276;2024-01-30T10:32:19;2.03;;;1.83;;
13832;SDS011;6987;19.472;-99.276;2024-01-30T10:34:48;5.05;;;2.08;;
13832;SDS011;6987;19.472;-99.276;2024-01-30T10:37:17;1.85;;;1.40;;
13832;SDS011;6987;19.472;-99.276;2024-01-30T10:39:48;1.60;;;1.50;;
13832;SDS011;6987;19.472;-99.276;2024-01-30T10:42:18;1.58;;;1.48;;
13832;SDS011;6987;19.472;-99.276;2024-01-30T10:44:53;4.03;;;2.10;;
13832;SDS011;6987;19.472;-99.276;2024-01-30T10:47:28;7.35;;;2.13;;
13832;SDS011;6987;19.472;-99.276;2024-01-30T10:49:57;2.47;;;2.10;;
13832;SDS011;6987;19.472;-99.276;2024-01-30T10:52:26;2.00;;;1.88;;
13832;SDS011;6987;19.472;-99.276;2024-01-30T10:54:55;3.38;;;2.40;;
13832;SDS011;6987;19.472;-99.276;2024-01-30T10:57:25;2.55;;;1.90;;
13832;SDS011;6987;19.472;-99.276;2024-01-30T10:59:55;1.95;;;1.77;;
13832;SDS011;6987;19.472;-99.276;2024-01-30T11:02:24;2.42;;;1.90;;
13832;SDS011;6987;19.472;-99.276;2024-01-30T11:04:57;6.93;;;2.25;;
13832;SDS011;6987;19.472;-99.276;2024-01-30T11:07:26;3.08;;;2.45;;
13832;SDS011;6987;19.472;-99.276;2024-01-30T11:09:59;2.92;;;2.10;;
13832;SDS011;6987;19.472;-99.276;2024-01-30T11:12:29;2.67;;;2.25;;
13832;SDS011;6987;19.472;-99.276;2024-01-30T11:15:02;4.65;;;2.40;;
13832;SDS011;6987;19.472;-99.276;2024-01-30T11:17:45;2.40;;;2.20;;
13832;SDS011;6987;19.472;-99.276;2024-01-30T11:20:26;4.30;;;2.38;;
13832;SDS011;6987;19.472;-99.276;2024-01-30T11:22:57;3.72;;;2.22;;
13832;SDS011;6987;19.472;-99.276;2024-01-30T11:25:27;2.75;;;2.55;;
13832;SDS011;6987;19.472;-99.276;2024-01-30T11:27:56;3.80;;;2.30;;
13832;SDS011;6987;19.472;-99.276;2024-01-30T11:30:25;2.50;;;2.25;;
13832;SDS011;6987;19.472;-99.276;2024-01-30T11:33:01;2.38;;;2.15;;
13832;SDS011;6987;19.472;-99.276;2024-01-30T11:35:34;3.20;;;2.47;;
13832;SDS011;6987;19.472;-99.276;2024-01-30T11:38:04;3.38;;;2.30;;
13832;SDS011;6987;19.472;-99.276;2024-01-30T11:40:33;6.88;;;2.90;;
13832;SDS011;6987;19.472;-99.276;2024-01-30T11:43:03;2.80;;;2.45;;
13832;SDS011;6987;19.472;-99.276;2024-01-30T11:45:32;3.85;;;2.50;;
13832;SDS011;6987;19.472;-99.276;2024-01-30T11:48:02;5.25;;;2.70;;
13832;SDS011;6987;19.472;-99.276;2024-01-30T11:50:31;5.25;;;2.25;;
13832;SDS011;6987;19.472;-99.276;2024-01-30T11:53:01;3.63;;;2.45;;
13832;SDS011;6987;19.472;-99.276;2024-01-30T11:55:30;4.53;;;2.88;;
13832;SDS011;6987;19.472;-99.276;2024-01-30T11:57:59;7.13;;;2.63;;
13832;SDS011;6987;19.472;-99.276;2024-01-30T12:00:29;4.43;;;2.30;;
13832;SDS011;6987;19.472;-99.276;2024-01-30T12:02:58;5.00;;;2.67;;
13832;SDS011;6987;19.472;-99.276;2024-01-30T12:05:28;3.45;;;2.40;;
13832;SDS011;6987;19.472;-99.276;2024-01-30T12:07:57;5.07;;;2.65;;
13832;SDS011;6987;19.472;-99.276;2024-01-30T12:10:31;3.42;;;2.47;;
13832;SDS011;6987;19.472;-99.276;2024-01-30T12:13:00;6.18;;;2.75;;
13832;SDS011;6987;19.472;-99.276;2024-01-30T12:15:30;2.85;;;2.28;;
13832;SDS011;6987;19.472;-99.276;2024-01-30T12:18:05;7.03;;;2.88;;
13832;SDS011;6987;19.472;-99.276;2024-01-30T12:20:34;2.55;;;2.35;;
13832;SDS011;6987;19.472;-99.276;2024-01-30T12:23:03;4.05;;;2.50;;
13832;SDS011;6987;19.472;-99.276;2024-01-30T12:25:34;5.97;;;2.60;;
13832;SDS011;6987;19.472;-99.276;2024-01-30T12:28:03;10.95;;;2.67;;
13832;SDS011;6987;19.472;-99.276;2024-01-30T12:30:32;3.05;;;2.75;;
13832;SDS011;6987;19.472;-99.276;2024-01-30T12:33:04;5.25;;;2.78;;
13832;SDS011;6987;19.472;-99.276;2024-01-30T12:35:34;7.13;;;3.20;;
13832;SDS011;6987;19.472;-99.276;2024-01-30T12:38:03;6.00;;;3.20;;
13832;SDS011;6987;19.472;-99.276;2024-01-30T12:40:35;12.35;;;3.00;;
13832;SDS011;6987;19.472;-99.276;2024-01-30T12:43:03;6.93;;;2.42;;
13832;SDS011;6987;19.472;-99.276;2024-01-30T12:45:32;10.75;;;3.35;;
13832;SDS011;6987;19.472;-99.276;2024-01-30T12:48:01;14.52;;;3.42;;
13832;SDS011;6987;19.472;-99.276;2024-01-30T12:50:30;9.48;;;3.63;;
13832;SDS011;6987;19.472;-99.276;2024-01-30T12:52:58;17.88;;;3.67;;
13832;SDS011;6987;19.472;-99.276;2024-01-30T12:55:27;11.05;;;3.60;;
13832;SDS011;6987;19.472;-99.276;2024-01-30T12:57:58;9.88;;;3.30;;
13832;SDS011;6987;19.472;-99.276;2024-01-30T13:00:27;15.00;;;3.83;;
13832;SDS011;6987;19.472;-99.276;2024-01-30T13:02:56;8.50;;;2.97;;
13832;SDS011;6987;19.472;-99.276;2024-01-30T13:05:25;5.18;;;2.50;;
13832;SDS011;6987;19.472;-99.276;2024-01-30T13:07:54;7.03;;;2.92;;
13832;SDS011;6987;19.472;-99.276;2024-01-30T13:10:23;10.18;;;3.00;;
13832;SDS011;6987;19.472;-99.276;2024-01-30T13:12:52;6.75;;;3.03;;
13832;SDS011;6987;19.472;-99.276;2024-01-30T13:15:22;8.30;;;2.80;;
13832;SDS011;6987;19.472;-99.276;2024-01-30T13:17:51;6.85;;;3.10;;
13832;SDS011;6987;19.472;-99.276;2024-01-30T13:20:21;8.27;;;3.30;;
13832;SDS011;6987;19.472;-99.276;2024-01-30T13:22:50;5.80;;;3.17;;
13832;SDS011;6987;19.472;-99.276;2024-01-30T13:25:19;12.60;;;3.17;;
13832;SDS011;6987;19.472;-99.276;2024-01-30T13:27:48;12.05;;;3.08;;
13832;SDS011;6987;19.472;-99.276;2024-01-30T13:30:17;21.58;;;3.20;;
13832;SDS011;6987;19.472;-99.276;2024-01-30T13:32:51;11.23;;;3.38;;
13832;SDS011;6987;19.472;-99.276;2024-01-30T13:35:20;11.23;;;3.50;;
13832;SDS011;6987;19.472;-99.276;2024-01-30T13:37:49;14.98;;;3.40;;
13832;SDS011;6987;19.472;-99.276;2024-01-30T13:40:18;7.85;;;3.30;;
13832;SDS011;6987;19.472;-99.276;2024-01-30T13:42:48;12.82;;;3.58;;
13832;SDS011;6987;19.472;-99.276;2024-01-30T13:45:16;10.68;;;3.35;;
13832;SDS011;6987;19.472;-99.276;2024-01-30T13:47:48;11.88;;;3.45;;
13832;SDS011;6987;19.472;-99.276;2024-01-30T13:50:17;10.90;;;3.83;;
13832;SDS011;6987;19.472;-99.276;2024-01-30T13:52:46;19.70;;;4.53;;
13832;SDS011;6987;19.472;-99.276;2024-01-30T13:55:15;24.80;;;4.40;;
13832;SDS011;6987;19.472;-99.276;2024-01-30T13:57:44;18.42;;;3.70;;
13832;SDS011;6987;19.472;-99.276;2024-01-30T14:00:13;10.80;;;3.75;;
13832;SDS011;6987;19.472;-99.276;2024-01-30T14:02:42;14.30;;;4.03;;
13832;SDS011;6987;19.472;-99.276;2024-01-30T14:05:14;11.82;;;4.18;;
13832;SDS011;6987;19.472;-99.276;2024-01-30T14:07:43;16.48;;;3.30;;
13832;SDS011;6987;19.472;-99.276;2024-01-30T14:10:12;8.05;;;3.60;;
13832;SDS011;6987;19.472;-99.276;2024-01-30T14:12:41;24.27;;;4.43;;
13832;SDS011;6987;19.472;-99.276;2024-01-30T14:15:18;15.55;;;3.63;;
13832;SDS011;6987;19.472;-99.276;2024-01-30T14:17:47;15.98;;;3.92;;
13832;SDS011;6987;19.472;-99.276;2024-01-30T14:20:18;18.45;;;4.10;;
13832;SDS011;6987;19.472;-99.276;2024-01-30T14:22:48;38.20;;;3.80;;
13832;SDS011;6987;19.472;-99.276;2024-01-30T14:25:18;16.48;;;3.55;;
13832;SDS011;6987;19.472;-99.276;2024-01-30T14:27:47;16.33;;;4.00;;
13832;SDS011;6987;19.472;-99.276;2024-01-30T14:30:16;19.40;;;4.28;;
13832;SDS011;6987;19.472;-99.276;2024-01-30T14:32:45;12.35;;;4.20;;
13832;SDS011;6987;19.472;-99.276;2024-01-30T14:35:14;16.63;;;4.43;;
13832;SDS011;6987;19.472;-99.276;2024-01-30T14:37:46;32.55;;;4.97;;
13832;SDS011;6987;19.472;-99.276;2024-01-30T14:40:15;21.92;;;4.10;;
13832;SDS011;6987;19.472;-99.276;2024-01-30T14:42:44;23.55;;;4.50;;
13832;SDS011;6987;19.472;-99.276;2024-01-30T14:45:13;24.02;;;4.45;;